Main page
METAR-TAF:

METAR-TAF

Airports :

Mwanza Airport

Mwanza, Tanzania

latitude: 02-28S, longitude: 032-55E, elevation: 1139 m

Current weather observation

The report was made 2 hours and 57 minutes ago, at 19:00 UTC
Calm wind
Temperature 22°C
Humidity 83%
Pressure 1017 hPa
Visibility 10 km or more
no clouds below 1500 m and no cumulonimbus

METAR: HTMW 191900Z 00000KT CAVOK 22/19 Q1017 NOSIG

Time: 00:57 (21:57 UTC)

Forecast

The report was made 4 hours and 57 minutes ago, at 17:00 UTC
Forecast valid from 19 at 18 UTC to 20 at 18 UTC
Wind 10 kt from the East/Southeast
Visibility 10 km or more
Few clouds at a height of 2100 ft
Few clouds at a height of 2200 ft, Cumulonimbus.
Becoming
from 20 at 11 UTC to 20 at 13 UTC
Wind 10 kt from the Northwest

TAF: HTMW 191700Z 1918/2018 12010KT 9999 FEW021 FEW022CB BECMG 2011/2013 32010KT

Weather observations and forecasts of more than 4000 airports (METAR and TAF reports).

The available stations are represented by yellow and red dots on the map.

Hover mouse over dot to see the name of the station.

Then click to see weather observations and forecasts.

To change the map : click on the green buttons with a black cross to zoom in, on the green button with a dash to zoom out, or on the green arrows for adjacent maps.


METAR-TAF: